aviador You're here:

KMKG Decoded Metar

MUSKEGON in MI, USA
Report Time2018-05-23 15:55:00
UTC Time2018-05-23 16:40:18
Flight Rules vfr VFR
Wind240° at 06 kt
W.Decomp.*RWY 24: 6.0 kt HW 0.4 kt RCW
RWY 32: 1.5 kt HW 5.8 kt LCW
W.Rank240° ranks 11
Current wind is below 240° avg. (9.2)
Visibility9999 m
Phenomena:N/A
Clouds:Few 006 Hf
Broken 250 Hf
Expected CloudBase > 2,000 ft AGL from Temp-Dew spread
Ceiling25,000 ft
Temp16°C (ISA +2)
Dew Point11°C (72% RH)
AAT14.2°C
QNH1023 hPa
Density Alt735 ft
Elevation627 ft
Report Wrong Elevation
Raw Report
KMKG 231555Z 24006KT 10SM FEW006 BKN250 16/11 A3022 RMK AO2 SLP235
T01610111=

Extra information for KMKG:More info

Metar Taf Metar & Taf Last 4 Metars F.Rules Stats Wind Profile Meteogram Temp Stats Airport Information Weather charts Add Link Nearby VenuesMetar ALERT Operation Metar Decoded Social comments

AIRNAV info for KMKG